createdAt,value
2018-08-19T00:00:55.030Z,54.89
2018-08-19T00:03:25.291Z,54.78
2018-08-19T00:05:55.499Z,54.39
2018-08-19T00:08:25.705Z,55.09
2018-08-19T00:11:06.561Z,55.67
2018-08-19T00:13:38.013Z,55.58
2018-08-19T00:16:09.632Z,55.69
2018-08-19T00:18:40.289Z,55.75
2018-08-19T00:21:12.495Z,56.09
2018-08-19T00:23:47.942Z,55.84
2018-08-19T00:26:18.530Z,56.19
2018-08-19T00:28:48.565Z,56.52
2018-08-19T00:31:18.713Z,56.27
2018-08-19T00:33:49.284Z,55.59
2018-08-19T00:36:31.608Z,55.59
2018-08-19T00:39:01.756Z,55.44
2018-08-19T00:41:31.916Z,55.30
2018-08-19T00:44:02.004Z,54.35
2018-08-19T00:46:33.123Z,54.36
2018-08-19T00:49:03.219Z,54.05
2018-08-19T00:51:33.343Z,54.07
2018-08-19T00:54:03.487Z,53.78
2018-08-19T00:56:33.651Z,53.25
2018-08-19T00:59:04.020Z,52.83
2018-08-19T01:01:37.145Z,53.20
2018-08-19T01:04:09.925Z,52.08
2018-08-19T01:06:44.952Z,52.27
2018-08-19T01:09:15.040Z,52.79
2018-08-19T01:11:45.292Z,52.84
2018-08-19T01:14:16.258Z,52.47
2018-08-19T01:16:46.450Z,53.00
2018-08-19T01:19:17.997Z,53.13
2018-08-19T01:21:51.946Z,53.38
2018-08-19T01:24:22.331Z,53.84
2018-08-19T01:26:52.464Z,54.04
2018-08-19T01:29:36.497Z,54.05
2018-08-19T01:32:15.205Z,54.05
2018-08-19T01:34:47.221Z,54.24
2018-08-19T01:37:17.319Z,53.96
2018-08-19T01:39:47.363Z,54.23
2018-08-19T01:42:17.435Z,54.30
2018-08-19T01:44:47.452Z,53.91
2018-08-19T01:47:17.507Z,54.14
2018-08-19T01:49:47.535Z,55.30
2018-08-19T01:52:17.701Z,54.97
2018-08-19T01:54:47.717Z,54.28
2018-08-19T01:57:17.820Z,53.82
2018-08-19T01:59:47.854Z,53.74
2018-08-19T02:02:17.971Z,54.76
2018-08-19T02:04:53.014Z,54.37
2018-08-19T02:07:23.193Z,54.18
2018-08-19T02:10:03.564Z,54.21
2018-08-19T02:12:39.554Z,54.35
2018-08-19T02:15:10.791Z,54.97
2018-08-19T02:17:46.353Z,55.43
2018-08-19T02:20:16.517Z,55.01
2018-08-19T02:22:52.390Z,55.42
2018-08-19T02:25:22.440Z,54.82
2018-08-19T02:27:52.481Z,55.42
2018-08-19T02:30:22.557Z,55.67
2018-08-19T02:32:55.661Z,56.18
2018-08-19T02:35:25.783Z,56.00
2018-08-19T02:37:55.814Z,55.62
2018-08-19T02:40:30.806Z,54.97
2018-08-19T02:43:01.072Z,54.59
2018-08-19T02:45:31.250Z,54.69
2018-08-19T02:48:01.332Z,55.41
2018-08-19T02:50:31.389Z,54.73
2018-08-19T02:53:01.423Z,54.49
2018-08-19T02:55:31.449Z,54.38
2018-08-19T02:58:06.601Z,54.84
2018-08-19T03:00:36.682Z,55.37
2018-08-19T03:03:06.743Z,56.01
2018-08-19T03:05:37.778Z,55.96
2018-08-19T03:08:07.947Z,56.06
2018-08-19T03:10:37.932Z,55.39
2018-08-19T03:13:07.974Z,55.85
2018-08-19T03:15:38.872Z,55.96
2018-08-19T03:18:08.960Z,56.26
2018-08-19T03:20:38.959Z,56.18
2018-08-19T03:23:09.076Z,56.27
2018-08-19T03:25:39.088Z,55.84
2018-08-19T03:28:09.178Z,56.22
2018-08-19T03:30:40.896Z,55.40
2018-08-19T03:33:12.899Z,55.19
2018-08-19T03:35:43.137Z,55.32
2018-08-19T03:38:15.387Z,55.92
2018-08-19T03:40:45.384Z,55.96
2018-08-19T03:43:15.405Z,56.24
2018-08-19T03:45:45.425Z,56.65
2018-08-19T03:48:15.455Z,56.92
2018-08-19T03:50:45.466Z,57.28
2018-08-19T03:53:15.710Z,57.60
2018-08-19T03:55:45.724Z,58.01
2018-08-19T03:58:15.810Z,56.96
2018-08-19T04:00:46.231Z,56.44
2018-08-19T04:03:21.935Z,56.78
2018-08-19T04:05:56.292Z,56.03
2018-08-19T04:09:00.298Z,56.18
2018-08-19T04:11:30.339Z,55.58
2018-08-19T04:14:00.417Z,55.14
2018-08-19T04:16:30.477Z,54.47
2018-08-19T04:19:07.374Z,54.13
2018-08-19T04:21:37.393Z,53.61
2018-08-19T04:24:07.608Z,53.71
2018-08-19T04:26:37.620Z,54.00
2018-08-19T04:29:11.782Z,53.76
2018-08-19T04:31:41.836Z,53.95
2018-08-19T04:34:12.883Z,54.22
2018-08-19T04:36:42.950Z,54.18
2018-08-19T04:39:13.011Z,54.32
2018-08-19T04:41:43.068Z,54.27
2018-08-19T04:44:13.153Z,53.77
2018-08-19T04:46:43.180Z,54.59
2018-08-19T04:49:14.448Z,54.00
2018-08-19T04:51:44.511Z,54.83
2018-08-19T04:54:14.615Z,55.12
2018-08-19T04:56:44.754Z,55.60
2018-08-19T04:59:14.835Z,55.80
2018-08-19T05:01:46.428Z,55.64
2018-08-19T05:04:16.478Z,55.87
2018-08-19T05:06:46.565Z,55.88
2018-08-19T05:09:16.627Z,55.07
2018-08-19T05:11:46.731Z,55.04
2018-08-19T05:14:16.783Z,55.88
2018-08-19T05:16:46.829Z,56.25
2018-08-19T05:19:17.480Z,55.78
2018-08-19T05:21:47.539Z,56.71
2018-08-19T05:24:17.607Z,56.74
2018-08-19T05:26:51.133Z,56.42
2018-08-19T05:29:21.128Z,58.59
2018-08-19T05:31:58.266Z,57.62
2018-08-19T05:34:35.827Z,58.68
2018-08-19T05:37:06.001Z,58.37
2018-08-19T05:39:36.139Z,57.69
2018-08-19T05:42:12.585Z,57.90
2018-08-19T05:44:43.087Z,58.27
2018-08-19T05:47:16.917Z,58.50
2018-08-19T05:49:47.878Z,58.48
2018-08-19T05:52:21.136Z,59.07
2018-08-19T05:55:07.513Z,58.32
2018-08-19T05:57:37.548Z,58.77
2018-08-19T06:00:13.161Z,58.73
2018-08-19T06:02:43.767Z,58.70
2018-08-19T06:05:13.839Z,59.99
2018-08-19T06:07:44.157Z,59.98
2018-08-19T06:10:14.112Z,58.90
2018-08-19T06:12:44.158Z,59.16
2018-08-19T06:15:14.187Z,59.55
2018-08-19T06:17:44.282Z,58.96
2018-08-19T06:20:14.717Z,56.62
2018-08-19T06:22:44.760Z,56.19
2018-08-19T06:25:14.804Z,57.52
2018-08-19T06:27:46.821Z,57.26
2018-08-19T06:30:17.711Z,57.40
2018-08-19T06:32:48.051Z,56.57
2018-08-19T06:35:18.063Z,59.69
2018-08-19T06:37:48.187Z,59.98
2018-08-19T06:40:19.535Z,58.98
2018-08-19T06:42:49.635Z,59.35
2018-08-19T06:45:19.727Z,58.33
2018-08-19T06:47:49.847Z,57.61
2018-08-19T06:50:24.655Z,57.41
2018-08-19T06:52:55.506Z,58.57
2018-08-19T06:55:25.732Z,58.43
2018-08-19T06:57:59.291Z,59.04
2018-08-19T07:00:30.758Z,58.72
2018-08-19T07:03:03.942Z,57.99
2018-08-19T07:05:34.789Z,56.53
2018-08-19T07:08:04.896Z,57.27
2018-08-19T07:10:37.693Z,58.81
2018-08-19T07:13:11.085Z,58.28
2018-08-19T07:15:42.279Z,57.59
2018-08-19T07:18:14.968Z,57.87
2018-08-19T07:20:45.541Z,57.33
2018-08-19T07:23:15.676Z,57.34
2018-08-19T07:25:46.427Z,59.39
2018-08-19T07:28:18.025Z,60.30
2018-08-19T07:30:48.104Z,60.79
2018-08-19T07:33:18.233Z,60.45
2018-08-19T07:35:48.231Z,58.74
2018-08-19T07:38:18.272Z,57.45
2018-08-19T07:40:48.381Z,56.82
2018-08-19T07:43:18.395Z,57.10
2018-08-19T07:45:48.462Z,56.20
2018-08-19T07:48:18.518Z,56.58
2018-08-19T07:50:48.605Z,56.89
2018-08-19T07:53:18.634Z,57.49
2018-08-19T07:55:48.721Z,53.61
2018-08-19T07:58:34.250Z,52.04
2018-08-19T08:01:04.899Z,50.61
2018-08-19T08:03:34.973Z,50.70
2018-08-19T08:06:05.071Z,51.81
2018-08-19T08:08:35.141Z,51.34
2018-08-19T08:11:05.309Z,51.03
2018-08-19T08:13:35.393Z,51.09
2018-08-19T08:16:05.547Z,50.68
2018-08-19T08:18:35.627Z,51.36
2018-08-19T08:21:15.259Z,49.44
2018-08-19T08:23:45.197Z,48.65
2018-08-19T08:26:15.800Z,48.48
2018-08-19T08:28:52.973Z,49.13
2018-08-19T08:31:23.684Z,47.80
2018-08-19T08:33:54.281Z,46.28
2018-08-19T08:36:24.396Z,46.23
2018-08-19T08:38:54.468Z,45.93
2018-08-19T09:48:59.010Z,34.07
2018-08-19T09:51:29.090Z,33.45
2018-08-19T09:53:59.159Z,34.14
2018-08-19T09:56:34.299Z,34.19
2018-08-19T09:59:05.238Z,34.47
2018-08-19T10:01:42.438Z,33.44
2018-08-19T10:04:22.961Z,34.24
2018-08-19T10:07:16.257Z,34.43
2018-08-19T10:09:46.295Z,34.65
2018-08-19T10:12:16.509Z,34.64
2018-08-19T10:14:46.527Z,33.22
2018-08-19T10:17:16.577Z,32.96
2018-08-19T10:19:46.583Z,33.72
2018-08-19T10:22:16.706Z,32.92
2018-08-19T10:24:46.756Z,32.13
2018-08-19T10:27:16.864Z,33.33
2018-08-19T10:29:46.974Z,34.88
2018-08-19T10:32:17.125Z,32.17
2018-08-19T10:34:47.412Z,32.08
2018-08-19T10:37:17.533Z,31.87
2018-08-19T10:39:47.707Z,33.12
2018-08-19T10:42:24.735Z,32.80
2018-08-19T10:44:54.855Z,33.56
2018-08-19T10:47:25.139Z,33.53
2018-08-19T10:50:00.890Z,32.71
2018-08-19T10:52:32.564Z,32.94
2018-08-19T10:55:02.686Z,32.98
2018-08-19T10:57:32.934Z,34.84
2018-08-19T11:00:03.042Z,33.43
2018-08-19T11:02:33.416Z,32.31
2018-08-19T11:05:03.541Z,33.22
2018-08-19T11:07:33.900Z,34.42
2018-08-19T11:10:26.651Z,31.55
2018-08-19T11:12:58.099Z,32.56
2018-08-19T11:15:50.424Z,31.88
2018-08-19T11:18:39.967Z,32.28
2018-08-19T11:21:15.524Z,32.78
2018-08-19T11:23:46.996Z,32.12
2018-08-19T11:26:17.089Z,31.68
2018-08-19T11:28:52.774Z,31.78
2018-08-19T11:31:28.651Z,31.63
2018-08-19T11:34:02.372Z,33.75
2018-08-19T11:36:38.726Z,32.58
2018-08-19T11:39:17.361Z,33.04
2018-08-19T11:41:47.460Z,31.43
2018-08-19T11:44:18.289Z,31.78
2018-08-19T11:46:48.357Z,31.09
2018-08-19T11:49:19.558Z,31.13
2018-08-19T11:51:55.126Z,30.69
2018-08-19T11:54:25.936Z,31.42
2018-08-19T11:57:03.479Z,31.60
2018-08-19T11:59:36.567Z,30.99
2018-08-19T12:02:09.284Z,29.99
2018-08-19T12:04:39.275Z,29.97
2018-08-19T12:07:09.431Z,31.79
2018-08-19T12:09:45.247Z,31.12
2018-08-19T12:12:15.271Z,31.50
2018-08-19T12:14:45.434Z,31.45
2018-08-19T12:17:15.550Z,31.73
2018-08-19T12:19:45.599Z,31.74
2018-08-19T12:22:15.683Z,31.25
2018-08-19T12:24:48.051Z,30.97
2018-08-19T12:27:20.878Z,32.18
2018-08-19T12:29:51.712Z,31.47
2018-08-19T12:32:26.481Z,32.57
2018-08-19T12:35:02.435Z,31.38
2018-08-19T12:37:33.648Z,31.26
2018-08-19T12:40:03.783Z,31.20
2018-08-19T12:42:38.898Z,31.50
2018-08-19T12:45:09.528Z,32.11
2018-08-19T12:47:39.576Z,30.54
2018-08-19T12:50:13.176Z,32.79
2018-08-19T12:52:43.645Z,31.97
2018-08-19T12:55:16.741Z,29.80
2018-08-19T12:57:48.145Z,30.46
2018-08-19T13:00:19.833Z,30.20
2018-08-19T13:02:51.975Z,30.81
2018-08-19T13:05:22.491Z,30.61
2018-08-19T13:07:52.687Z,31.96
2018-08-19T13:10:23.281Z,32.61
2018-08-19T13:12:54.626Z,30.67
2018-08-19T13:15:25.867Z,30.79
2018-08-19T13:17:55.978Z,30.25
2018-08-19T13:20:26.022Z,31.49
2018-08-19T13:23:01.487Z,31.68
2018-08-19T13:25:31.859Z,31.71
2018-08-19T13:28:01.964Z,32.36
2018-08-19T13:30:31.986Z,32.35
2018-08-19T13:33:02.015Z,30.14
2018-08-19T13:35:32.045Z,30.77
2018-08-19T13:38:02.029Z,31.02
2018-08-19T13:40:32.121Z,31.44
2018-08-19T13:43:02.217Z,31.10
2018-08-19T13:45:32.360Z,31.39
2018-08-19T13:48:02.282Z,32.36
2018-08-19T13:50:32.365Z,31.70
2018-08-19T13:53:02.498Z,32.26
2018-08-19T13:55:32.606Z,32.58
2018-08-19T13:58:02.710Z,33.16
2018-08-19T14:00:33.784Z,33.59
2018-08-19T14:03:04.016Z,33.43
2018-08-19T14:05:34.080Z,33.41
2018-08-19T14:08:04.113Z,33.48
2018-08-19T14:10:34.166Z,33.42
2018-08-19T14:13:04.243Z,33.02
2018-08-19T14:15:34.297Z,33.64
2018-08-19T14:18:04.401Z,35.38
2018-08-19T14:20:34.491Z,34.70
2018-08-19T14:23:04.519Z,33.99
2018-08-19T14:25:34.569Z,34.33
2018-08-19T14:28:04.650Z,34.15
2018-08-19T14:30:34.865Z,34.09
2018-08-19T14:33:04.986Z,34.68
2018-08-19T14:35:35.067Z,32.61
2018-08-19T14:38:05.159Z,32.44
2018-08-19T14:40:35.299Z,34.14
2018-08-19T14:43:05.468Z,34.92
2018-08-19T14:45:35.543Z,34.75
2018-08-19T14:48:05.687Z,33.85
2018-08-19T14:50:35.752Z,33.10
2018-08-19T14:53:05.877Z,33.37
2018-08-19T14:55:35.974Z,32.94
2018-08-19T14:58:06.130Z,33.46
2018-08-19T15:00:36.267Z,33.08
2018-08-19T15:03:06.384Z,33.22
2018-08-19T15:05:36.465Z,32.01
2018-08-19T15:08:12.716Z,32.56
2018-08-19T15:10:43.650Z,33.32
2018-08-19T15:13:13.741Z,32.15
2018-08-19T15:15:43.824Z,32.07
2018-08-19T15:18:13.946Z,33.78
2018-08-19T15:20:44.006Z,32.28
2018-08-19T15:23:21.093Z,32.42
2018-08-19T15:25:51.186Z,31.66
2018-08-19T15:28:21.271Z,32.29
2018-08-19T15:30:51.321Z,33.86
2018-08-19T15:33:23.014Z,31.57
2018-08-19T15:35:53.078Z,32.65
2018-08-19T15:38:23.204Z,32.87
2018-08-19T15:40:53.359Z,32.41
2018-08-19T15:43:23.363Z,33.37
2018-08-19T15:45:53.455Z,33.71
2018-08-19T15:48:23.541Z,33.93
2018-08-19T15:50:57.991Z,32.77
2018-08-19T15:53:28.098Z,32.99
2018-08-19T15:55:58.220Z,33.23
2018-08-19T15:58:29.560Z,33.21
2018-08-19T16:00:59.665Z,33.96
2018-08-19T16:03:29.749Z,33.38
2018-08-19T16:05:59.792Z,33.32
2018-08-19T16:08:30.070Z,33.73
2018-08-19T16:11:00.108Z,34.31
2018-08-19T16:13:30.389Z,33.80
2018-08-19T16:16:00.515Z,34.47
2018-08-19T16:18:30.583Z,35.36
2018-08-19T16:21:03.590Z,34.48
2018-08-19T16:23:33.978Z,34.63
2018-08-19T16:26:04.099Z,35.81
2018-08-19T16:28:35.090Z,36.06
2018-08-19T16:31:05.238Z,35.91
2018-08-19T16:33:35.348Z,36.25
2018-08-19T16:36:05.485Z,35.95
2018-08-19T16:38:35.569Z,36.43
2018-08-19T16:41:05.659Z,36.78
2018-08-19T16:43:35.644Z,36.76
2018-08-19T16:46:05.779Z,36.79
2018-08-19T16:48:35.791Z,37.00
2018-08-19T16:51:05.998Z,37.35
2018-08-19T16:53:36.133Z,37.10
2018-08-19T16:56:06.227Z,37.62
2018-08-19T16:58:36.324Z,37.33
2018-08-19T17:01:06.572Z,38.02
2018-08-19T17:03:38.851Z,38.40
2018-08-19T17:06:12.735Z,38.50
2018-08-19T17:08:43.378Z,39.12
2018-08-19T17:11:15.105Z,38.90
2018-08-19T17:13:45.181Z,39.08
2018-08-19T17:16:15.282Z,39.46
2018-08-19T17:18:45.332Z,39.40
2018-08-19T17:21:15.354Z,39.47
2018-08-19T17:23:49.607Z,39.99
2018-08-19T17:26:22.008Z,40.45
2018-08-19T17:28:52.246Z,40.54
2018-08-19T17:31:22.504Z,40.97
2018-08-19T17:33:52.533Z,41.42
2018-08-19T17:36:40.110Z,41.79
2018-08-19T17:39:14.584Z,41.72
2018-08-19T17:41:44.713Z,41.63
2018-08-19T17:44:14.798Z,42.77
2018-08-19T17:46:44.847Z,42.55
2018-08-19T17:49:19.032Z,42.46
2018-08-19T17:51:49.165Z,42.69
2018-08-19T17:54:23.437Z,42.77
2018-08-19T17:56:53.531Z,42.62
2018-08-19T17:59:23.828Z,42.18
2018-08-19T18:01:53.889Z,42.59
2018-08-19T18:04:27.793Z,43.75
2018-08-19T18:06:57.943Z,43.55
2018-08-19T18:09:28.051Z,44.50
2018-08-19T18:12:04.384Z,44.48
2018-08-19T18:14:35.488Z,44.29
2018-08-19T18:17:05.698Z,44.19
2018-08-19T18:19:36.416Z,44.43
2018-08-19T18:22:06.740Z,44.56
2018-08-19T18:24:36.828Z,45.03
2018-08-19T18:27:07.356Z,45.29
2018-08-19T18:29:45.514Z,44.97
2018-08-19T18:32:15.715Z,45.40
2018-08-19T18:34:45.786Z,45.58
2018-08-19T18:37:15.911Z,45.68
2018-08-19T18:39:46.052Z,45.88
2018-08-19T18:42:34.685Z,46.08
2018-08-19T18:45:11.052Z,46.39
2018-08-19T18:47:53.797Z,46.86
2018-08-19T18:50:26.347Z,47.48
2018-08-19T18:52:56.555Z,47.83
2018-08-19T18:55:26.798Z,47.55
2018-08-19T18:57:57.765Z,48.21
2018-08-19T19:00:28.449Z,48.14
2018-08-19T19:02:59.875Z,48.82
2018-08-19T19:05:41.283Z,48.70
2018-08-19T19:08:13.380Z,48.56
2018-08-19T19:11:06.073Z,48.96
2018-08-19T19:13:36.834Z,48.52
2018-08-19T19:16:06.984Z,48.96
2018-08-19T19:18:37.137Z,48.93
2018-08-19T19:21:07.607Z,49.47
2018-08-19T19:23:40.353Z,49.76
2018-08-19T19:26:10.997Z,49.36
2018-08-19T19:28:41.129Z,49.68
2018-08-19T19:31:14.498Z,49.67
2018-08-19T19:33:44.595Z,49.25
2018-08-19T19:36:18.694Z,49.56
2018-08-19T19:38:54.132Z,49.98
2018-08-19T19:41:27.914Z,49.57
2018-08-19T19:43:58.026Z,49.67
2018-08-19T19:46:28.143Z,50.49
2018-08-19T19:48:58.258Z,50.72
2018-08-19T19:51:28.316Z,51.04
2018-08-19T19:53:58.414Z,51.21
2018-08-19T19:56:28.457Z,51.33
2018-08-19T19:58:58.466Z,51.70
2018-08-19T20:01:28.518Z,52.38
2018-08-19T20:03:58.917Z,53.10
2018-08-19T20:06:28.963Z,53.67
2018-08-19T20:09:00.360Z,53.39
2018-08-19T20:11:31.382Z,54.24
2018-08-19T20:14:03.041Z,54.15
2018-08-19T20:16:33.131Z,54.49
2018-08-19T20:19:03.153Z,54.52
2018-08-19T20:21:36.809Z,54.71
2018-08-19T20:24:07.264Z,54.91
2018-08-19T20:26:37.329Z,54.79
2018-08-19T20:29:07.471Z,55.49
2018-08-19T20:31:37.516Z,55.82
2018-08-19T20:34:07.870Z,56.28
2018-08-19T20:36:37.952Z,56.01
2018-08-19T20:39:08.704Z,56.34
2018-08-19T20:41:38.789Z,56.49
2018-08-19T20:44:09.967Z,57.04
2018-08-19T20:46:44.358Z,57.20
2018-08-19T20:49:14.983Z,57.14
2018-08-19T20:51:45.125Z,57.25
2018-08-19T20:54:15.172Z,57.04
2018-08-19T20:56:45.198Z,57.53
2018-08-19T20:59:49.397Z,57.45
2018-08-19T21:02:19.663Z,57.47
2018-08-19T21:04:49.696Z,57.68
2018-08-19T21:07:19.787Z,57.42
2018-08-19T21:09:49.840Z,57.93
2018-08-19T21:12:19.957Z,58.13
2018-08-19T21:14:50.034Z,58.20
2018-08-19T21:17:20.369Z,59.04
2018-08-19T21:19:50.416Z,59.50
2018-08-19T21:22:20.496Z,59.64
2018-08-19T21:24:50.625Z,59.89
2018-08-19T21:27:20.692Z,59.95
2018-08-19T21:29:50.902Z,60.27
2018-08-19T21:32:20.900Z,60.43
2018-08-19T21:34:50.899Z,60.04
2018-08-19T21:37:27.110Z,60.20
2018-08-19T21:39:57.170Z,60.79
2018-08-19T21:42:27.686Z,60.89
2018-08-19T21:44:57.727Z,60.92
2018-08-19T21:47:27.899Z,61.35
2018-08-19T21:49:58.973Z,61.82
2018-08-19T21:52:29.226Z,62.11
2018-08-19T21:54:59.291Z,61.99
2018-08-19T21:57:29.424Z,61.89
2018-08-19T21:59:59.476Z,61.94
2018-08-19T22:02:34.424Z,62.37
2018-08-19T22:05:05.124Z,62.29
2018-08-19T22:07:35.358Z,62.26
2018-08-19T22:10:06.164Z,62.12
2018-08-19T22:12:37.107Z,62.23
2018-08-19T22:15:07.239Z,61.96
2018-08-19T22:17:37.335Z,62.25
2018-08-19T22:20:07.453Z,62.04
2018-08-19T22:22:37.510Z,62.42
2018-08-19T22:25:07.704Z,62.23
2018-08-19T22:27:37.742Z,62.90
2018-08-19T22:30:07.970Z,62.83
2018-08-19T22:32:38.031Z,62.49
2018-08-19T22:35:08.103Z,62.46
2018-08-19T22:37:38.230Z,62.72
2018-08-19T22:40:08.634Z,62.47
2018-08-19T22:42:38.685Z,62.29
2018-08-19T22:45:08.871Z,62.94
2018-08-19T22:47:38.908Z,62.87
2018-08-19T22:50:09.055Z,62.99
2018-08-19T22:52:39.291Z,62.90
2018-08-19T22:55:09.480Z,63.31
2018-08-19T22:57:39.490Z,63.00
2018-08-19T23:00:09.770Z,62.97
2018-08-19T23:02:39.842Z,63.45
2018-08-19T23:05:09.883Z,63.74
2018-08-19T23:07:40.061Z,63.22
2018-08-19T23:10:10.221Z,63.44
2018-08-19T23:12:42.631Z,63.47
2018-08-19T23:15:29.317Z,63.23
2018-08-19T23:17:59.398Z,63.35
2018-08-19T23:20:29.467Z,63.46
2018-08-19T23:22:59.524Z,63.70
2018-08-19T23:25:29.630Z,63.47
2018-08-19T23:27:59.637Z,63.91
2018-08-19T23:30:29.681Z,63.62
2018-08-19T23:32:59.737Z,63.88
2018-08-19T23:35:29.807Z,63.83
2018-08-19T23:37:59.842Z,64.53
2018-08-19T23:40:29.976Z,64.91
2018-08-19T23:43:00.051Z,64.77
2018-08-19T23:45:30.168Z,65.42
2018-08-19T23:48:00.200Z,64.88
2018-08-19T23:50:30.442Z,65.30
2018-08-19T23:53:00.527Z,65.51
2018-08-19T23:55:30.625Z,65.15
2018-08-19T23:58:00.751Z,65.19
